sensor_id;sensor_type;location;lat;lon;timestamp;pressure;altitude;pressure_sealevel;temperature;humidity
51986;BME280;38002;53.296;6.600;2023-04-01T00:02:34;99426.81;;;9.78;95.08
51986;BME280;38002;53.296;6.600;2023-04-01T00:07:39;99426.16;;;9.76;95.60
51986;BME280;38002;53.296;6.600;2023-04-01T00:12:40;99420.94;;;9.75;94.96
51986;BME280;38002;53.296;6.600;2023-04-01T00:17:41;99428.22;;;9.74;95.35
51986;BME280;38002;53.296;6.600;2023-04-01T00:22:41;99435.53;;;9.74;95.13
51986;BME280;38002;53.296;6.600;2023-04-01T00:27:41;99434.69;;;9.73;95.14
51986;BME280;38002;53.296;6.600;2023-04-01T00:32:42;99430.28;;;9.72;95.50
51986;BME280;38002;53.296;6.600;2023-04-01T00:37:43;99436.09;;;9.69;96.20
51986;BME280;38002;53.296;6.600;2023-04-01T00:42:43;99437.13;;;9.68;95.70
51986;BME280;38002;53.296;6.600;2023-04-01T00:47:44;99431.06;;;9.66;95.57
51986;BME280;38002;53.296;6.600;2023-04-01T00:52:44;99431.06;;;9.66;96.54
51986;BME280;38002;53.296;6.600;2023-04-01T00:57:48;99434.81;;;9.65;95.84
51986;BME280;38002;53.296;6.600;2023-04-01T01:02:50;99431.44;;;9.63;96.33
51986;BME280;38002;53.296;6.600;2023-04-01T01:08:06;99433.28;;;9.63;95.90
51986;BME280;38002;53.296;6.600;2023-04-01T01:13:18;99438.25;;;9.59;96.33
51986;BME280;38002;53.296;6.600;2023-04-01T01:34:40;99448.84;;;9.54;96.42
51986;BME280;38002;53.296;6.600;2023-04-01T01:39:49;99450.72;;;9.53;97.06
51986;BME280;38002;53.296;6.600;2023-04-01T01:44:52;99450.72;;;9.53;97.14
51986;BME280;38002;53.296;6.600;2023-04-01T01:49:54;99455.31;;;9.53;96.71
51986;BME280;38002;53.296;6.600;2023-04-01T01:54:57;99456.13;;;9.53;97.67
51986;BME280;38002;53.296;6.600;2023-04-01T02:00:08;99452.63;;;9.53;97.35
51986;BME280;38002;53.296;6.600;2023-04-01T02:05:23;99453.63;;;9.52;96.93
51986;BME280;38002;53.296;6.600;2023-04-01T02:10:26;99463.66;;;9.51;96.59
51986;BME280;38002;53.296;6.600;2023-04-01T02:15:31;99462.97;;;9.49;96.70
51986;BME280;38002;53.296;6.600;2023-04-01T02:20:34;99470.94;;;9.51;96.35
51986;BME280;38002;53.296;6.600;2023-04-01T02:25:37;99468.22;;;9.51;96.93
51986;BME280;38002;53.296;6.600;2023-04-01T02:30:39;99469.91;;;9.52;96.99
51986;BME280;38002;53.296;6.600;2023-04-01T02:35:41;99472.63;;;9.52;96.62
51986;BME280;38002;53.296;6.600;2023-04-01T02:40:44;99481.63;;;9.52;97.18
51986;BME280;38002;53.296;6.600;2023-04-01T02:45:45;99483.66;;;9.50;96.78
51986;BME280;38002;53.296;6.600;2023-04-01T02:50:46;99484.50;;;9.51;96.93
51986;BME280;38002;53.296;6.600;2023-04-01T02:55:46;99491.63;;;9.52;97.13
51986;BME280;38002;53.296;6.600;2023-04-01T03:00:50;99494.53;;;9.50;97.43
51986;BME280;38002;53.296;6.600;2023-04-01T03:05:50;99500.63;;;9.52;96.94
51986;BME280;38002;53.296;6.600;2023-04-01T03:10:51;99494.97;;;9.54;97.15
51986;BME280;38002;53.296;6.600;2023-04-01T03:15:52;99508.53;;;9.54;97.26
51986;BME280;38002;53.296;6.600;2023-04-01T03:20:53;99510.22;;;9.55;96.78
51986;BME280;38002;53.296;6.600;2023-04-01T03:25:53;99510.06;;;9.56;96.57
51986;BME280;38002;53.296;6.600;2023-04-01T03:30:54;99517.34;;;9.56;96.96
51986;BME280;38002;53.296;6.600;2023-04-01T03:35:54;99523.81;;;9.55;96.49
51986;BME280;38002;53.296;6.600;2023-04-01T03:40:54;99523.81;;;9.55;96.56
51986;BME280;38002;53.296;6.600;2023-04-01T03:45:55;99528.38;;;9.54;96.73
51986;BME280;38002;53.296;6.600;2023-04-01T03:50:58;99529.22;;;9.55;96.73
51986;BME280;38002;53.296;6.600;2023-04-01T03:55:58;99533.63;;;9.56;97.10
51986;BME280;38002;53.296;6.600;2023-04-01T04:00:58;99550.75;;;9.56;97.09
51986;BME280;38002;53.296;6.600;2023-04-01T04:05:59;99550.94;;;9.55;96.09
51986;BME280;38002;53.296;6.600;2023-04-01T04:10:59;99552.81;;;9.54;96.29
51986;BME280;38002;53.296;6.600;2023-04-01T04:16:00;99549.25;;;9.54;97.25
51986;BME280;38002;53.296;6.600;2023-04-01T04:21:01;99559.47;;;9.52;96.95
51986;BME280;38002;53.296;6.600;2023-04-01T04:26:10;99563.03;;;9.52;96.26
51986;BME280;38002;53.296;6.600;2023-04-01T04:31:11;99564.88;;;9.52;96.61
51986;BME280;38002;53.296;6.600;2023-04-01T04:36:13;99576.94;;;9.49;96.64
51986;BME280;38002;53.296;6.600;2023-04-01T04:41:14;99576.94;;;9.49;96.66
51986;BME280;38002;53.296;6.600;2023-04-01T04:46:15;99589.69;;;9.49;96.66
51986;BME280;38002;53.296;6.600;2023-04-01T04:51:17;99600.53;;;9.49;96.85
51986;BME280;38002;53.296;6.600;2023-04-01T04:56:22;99607.00;;;9.48;96.85
51986;BME280;38002;53.296;6.600;2023-04-01T05:01:22;99607.63;;;9.50;96.77
51986;BME280;38002;53.296;6.600;2023-04-01T05:06:23;99608.47;;;9.50;96.84
51986;BME280;38002;53.296;6.600;2023-04-01T05:11:25;99614.94;;;9.49;97.01
51986;BME280;38002;53.296;6.600;2023-04-01T05:16:26;99622.25;;;9.49;97.50
51986;BME280;38002;53.296;6.600;2023-04-01T05:21:26;99628.31;;;9.51;96.92
51986;BME280;38002;53.296;6.600;2023-04-01T05:26:27;99638.16;;;9.52;96.76
51986;BME280;38002;53.296;6.600;2023-04-01T05:31:27;99640.88;;;9.52;96.96
51986;BME280;38002;53.296;6.600;2023-04-01T05:36:28;99653.41;;;9.53;96.90
51986;BME280;38002;53.296;6.600;2023-04-01T05:41:28;99657.78;;;9.54;97.30
51986;BME280;38002;53.296;6.600;2023-04-01T05:46:29;99658.47;;;9.56;96.77
51986;BME280;38002;53.296;6.600;2023-04-01T05:51:29;99662.88;;;9.57;97.52
51986;BME280;38002;53.296;6.600;2023-04-01T05:56:30;99671.47;;;9.61;97.85
51986;BME280;38002;53.296;6.600;2023-04-01T06:01:30;99679.06;;;9.65;97.56
51986;BME280;38002;53.296;6.600;2023-04-01T06:06:32;99687.50;;;9.70;97.85
51986;BME280;38002;53.296;6.600;2023-04-01T06:54:21;99753.63;;;10.07;98.07
51986;BME280;38002;53.296;6.600;2023-04-01T06:59:27;99757.50;;;10.12;97.66
51986;BME280;38002;53.296;6.600;2023-04-01T07:04:34;99751.03;;;10.13;97.46
51986;BME280;38002;53.296;6.600;2023-04-01T07:09:39;99768.97;;;10.22;97.88
51986;BME280;38002;53.296;6.600;2023-04-01T07:14:41;99779.25;;;10.27;97.76
51986;BME280;38002;53.296;6.600;2023-04-01T07:19:53;99784.69;;;10.27;97.71
51986;BME280;38002;53.296;6.600;2023-04-01T07:24:56;99792.81;;;10.27;98.85
51986;BME280;38002;53.296;6.600;2023-04-01T07:29:58;99794.44;;;10.36;98.61
51986;BME280;38002;53.296;6.600;2023-04-01T07:51:02;99820.22;;;10.69;97.05
51986;BME280;38002;53.296;6.600;2023-04-01T08:01:13;99848.53;;;10.89;97.26
51986;BME280;38002;53.296;6.600;2023-04-01T08:21:58;99874.66;;;11.20;96.33
51986;BME280;38002;53.296;6.600;2023-04-01T08:27:12;99888.16;;;11.13;95.29
51986;BME280;38002;53.296;6.600;2023-04-01T08:32:21;99892.41;;;11.01;95.01
51986;BME280;38002;53.296;6.600;2023-04-01T08:37:28;99894.66;;;10.98;95.33
51986;BME280;38002;53.296;6.600;2023-04-01T08:58:42;99942.19;;;10.72;94.50
51986;BME280;38002;53.296;6.600;2023-04-01T09:14:21;99977.91;;;10.32;93.38
51986;BME280;38002;53.296;6.600;2023-04-01T09:35:22;100012.75;;;9.97;94.39
51986;BME280;38002;53.296;6.600;2023-04-01T09:45:48;100032.81;;;9.96;94.39
51986;BME280;38002;53.296;6.600;2023-04-01T10:23:31;100093.59;;;9.87;94.53
51986;BME280;38002;53.296;6.600;2023-04-01T11:17:27;100173.59;;;9.61;93.35
51986;BME280;38002;53.296;6.600;2023-04-01T11:23:18;100173.75;;;9.59;93.81
51986;BME280;38002;53.296;6.600;2023-04-01T11:33:40;100184.94;;;9.64;93.84
51986;BME280;38002;53.296;6.600;2023-04-01T11:39:05;100200.56;;;9.62;92.78
51986;BME280;38002;53.296;6.600;2023-04-01T11:44:16;100207.38;;;9.66;93.86
51986;BME280;38002;53.296;6.600;2023-04-01T12:47:56;100326.13;;;9.96;89.57
51986;BME280;38002;53.296;6.600;2023-04-01T13:20:06;100382.44;;;10.02;88.99
51986;BME280;38002;53.296;6.600;2023-04-01T13:25:36;100394.03;;;9.96;88.66
51986;BME280;38002;53.296;6.600;2023-04-01T13:36:14;100411.13;;;9.89;89.29
51986;BME280;38002;53.296;6.600;2023-04-01T13:41:22;100410.81;;;9.92;89.43
51986;BME280;38002;53.296;6.600;2023-04-01T13:52:03;100442.06;;;10.12;89.38
51986;BME280;38002;53.296;6.600;2023-04-01T14:02:47;100453.78;;;10.05;88.36
51986;BME280;38002;53.296;6.600;2023-04-01T14:13:21;100475.97;;;9.84;88.81
51986;BME280;38002;53.296;6.600;2023-04-01T14:23:46;100501.53;;;9.57;89.24
51986;BME280;38002;53.296;6.600;2023-04-01T14:29:32;100506.94;;;9.49;88.51
51986;BME280;38002;53.296;6.600;2023-04-01T14:34:58;100522.63;;;9.37;87.72
51986;BME280;38002;53.296;6.600;2023-04-01T14:40:22;100544.41;;;9.20;87.47
51986;BME280;38002;53.296;6.600;2023-04-01T14:45:46;100553.47;;;9.02;87.79
51986;BME280;38002;53.296;6.600;2023-04-01T14:50:54;100564.97;;;8.96;89.98
51986;BME280;38002;53.296;6.600;2023-04-01T14:55:59;100575.91;;;8.87;89.38
51986;BME280;38002;53.296;6.600;2023-04-01T15:22:26;100632.25;;;8.40;89.49
51986;BME280;38002;53.296;6.600;2023-04-01T15:27:51;100645.00;;;8.30;89.03
51986;BME280;38002;53.296;6.600;2023-04-01T15:43:50;100673.47;;;8.06;89.70
51986;BME280;38002;53.296;6.600;2023-04-01T16:04:58;100739.97;;;7.82;90.34
51986;BME280;38002;53.296;6.600;2023-04-01T16:26:28;100785.19;;;7.43;89.72
51986;BME280;38002;53.296;6.600;2023-04-01T16:31:50;100792.06;;;7.37;90.49
51986;BME280;38002;53.296;6.600;2023-04-01T16:36:55;100798.44;;;7.26;90.17
51986;BME280;38002;53.296;6.600;2023-04-01T16:47:11;100823.06;;;7.14;90.34
51986;BME280;38002;53.296;6.600;2023-04-01T16:52:16;100842.28;;;7.11;90.49
51986;BME280;38002;53.296;6.600;2023-04-01T16:57:45;100850.81;;;7.06;90.43
51986;BME280;38002;53.296;6.600;2023-04-01T17:50:18;100979.78;;;6.55;90.75
51986;BME280;38002;53.296;6.600;2023-04-01T18:00:39;101001.06;;;6.48;90.77
51986;BME280;38002;53.296;6.600;2023-04-01T18:05:51;101012.13;;;6.45;90.91
51986;BME280;38002;53.296;6.600;2023-04-01T18:27:23;101075.69;;;6.28;90.27
51986;BME280;38002;53.296;6.600;2023-04-01T18:32:48;101093.25;;;6.23;90.60
51986;BME280;38002;53.296;6.600;2023-04-01T18:38:01;101108.84;;;6.19;90.52
51986;BME280;38002;53.296;6.600;2023-04-01T18:43:33;101112.06;;;6.13;89.79
51986;BME280;38002;53.296;6.600;2023-04-01T18:53:59;101141.91;;;6.01;90.49
51986;BME280;38002;53.296;6.600;2023-04-01T18:59:32;101152.38;;;5.94;90.18
51986;BME280;38002;53.296;6.600;2023-04-01T19:04:41;101161.81;;;5.88;90.33
51986;BME280;38002;53.296;6.600;2023-04-01T19:09:46;101177.38;;;5.85;90.68
51986;BME280;38002;53.296;6.600;2023-04-01T19:15:02;101195.50;;;5.83;90.08
51986;BME280;38002;53.296;6.600;2023-04-01T19:25:32;101225.19;;;5.72;89.88
51986;BME280;38002;53.296;6.600;2023-04-01T19:46:48;101266.75;;;5.58;89.69
51986;BME280;38002;53.296;6.600;2023-04-01T20:08:00;101309.03;;;5.46;89.61
51986;BME280;38002;53.296;6.600;2023-04-01T20:13:21;101326.06;;;5.47;89.65
51986;BME280;38002;53.296;6.600;2023-04-01T20:29:35;101360.47;;;5.32;88.99
51986;BME280;38002;53.296;6.600;2023-04-01T20:40:15;101380.28;;;5.31;89.08
51986;BME280;38002;53.296;6.600;2023-04-01T20:45:56;101398.44;;;5.29;89.12
51986;BME280;38002;53.296;6.600;2023-04-01T20:51:04;101404.69;;;5.30;89.53
51986;BME280;38002;53.296;6.600;2023-04-01T21:01:41;101421.94;;;5.27;88.98
51986;BME280;38002;53.296;6.600;2023-04-01T21:44:36;101509.38;;;4.99;87.96
51986;BME280;38002;53.296;6.600;2023-04-01T21:49:54;101514.16;;;4.96;88.19
51986;BME280;38002;53.296;6.600;2023-04-01T22:05:44;101548.00;;;4.87;88.53
51986;BME280;38002;53.296;6.600;2023-04-01T22:10:58;101569.88;;;4.83;87.75
51986;BME280;38002;53.296;6.600;2023-04-01T22:16:26;101580.22;;;4.76;87.23
51986;BME280;38002;53.296;6.600;2023-04-01T22:32:18;101608.31;;;4.47;85.16
51986;BME280;38002;53.296;6.600;2023-04-01T22:43:06;101623.78;;;4.31;87.47
51986;BME280;38002;53.296;6.600;2023-04-01T22:48:22;101633.13;;;4.25;86.39
51986;BME280;38002;53.296;6.600;2023-04-01T22:59:06;101653.81;;;4.10;86.46
51986;BME280;38002;53.296;6.600;2023-04-01T23:04:12;101658.00;;;4.02;87.33
51986;BME280;38002;53.296;6.600;2023-04-01T23:09:23;101669.47;;;3.91;86.89
51986;BME280;38002;53.296;6.600;2023-04-01T23:14:36;101680.81;;;3.82;87.58
51986;BME280;38002;53.296;6.600;2023-04-01T23:24:56;101700.44;;;3.56;87.85
51986;BME280;38002;53.296;6.600;2023-04-01T23:30:01;101711.09;;;3.43;87.17
51986;BME280;38002;53.296;6.600;2023-04-01T23:35:15;101729.63;;;3.34;88.13
51986;BME280;38002;53.296;6.600;2023-04-01T23:40:17;101731.84;;;3.27;88.45
51986;BME280;38002;53.296;6.600;2023-04-01T23:45:18;101746.59;;;3.20;87.77
51986;BME280;38002;53.296;6.600;2023-04-01T23:50:23;101759.63;;;3.12;87.99
51986;BME280;38002;53.296;6.600;2023-04-01T23:55:26;101767.97;;;3.07;87.72
